createdAt,value
2022-08-17T00:01:24.126Z,7.03
2022-08-17T00:06:31.198Z,7.47
2022-08-17T00:11:36.297Z,6.97
2022-08-17T00:16:55.529Z,5.85
2022-08-17T00:22:31.974Z,6.45
2022-08-17T00:27:22.232Z,6.45
2022-08-17T00:33:14.072Z,6.72
2022-08-17T00:37:45.363Z,7.25
2022-08-17T00:42:48.091Z,7.22
2022-08-17T00:47:49.665Z,6.88
2022-08-17T00:52:56.004Z,7.57
2022-08-17T00:58:01.531Z,6.00
2022-08-17T01:03:11.855Z,8.10
2022-08-17T01:08:17.098Z,7.18
2022-08-17T01:13:19.946Z,7.80
2022-08-17T01:18:21.694Z,6.57
2022-08-17T01:23:25.391Z,8.77
2022-08-17T01:28:53.030Z,6.25
2022-08-17T01:33:53.269Z,7.43
2022-08-17T01:38:55.000Z,7.72
2022-08-17T01:44:03.278Z,6.97
2022-08-17T01:49:10.750Z,7.70
2022-08-17T01:54:16.294Z,9.10
2022-08-17T01:59:20.084Z,6.60
2022-08-17T02:04:21.756Z,8.85
2022-08-17T02:09:28.877Z,7.78
2022-08-17T02:14:31.577Z,9.18
2022-08-17T02:19:33.270Z,7.70
2022-08-17T02:24:58.894Z,7.53
2022-08-17T02:29:58.729Z,8.20
2022-08-17T02:35:00.912Z,8.70
2022-08-17T02:40:03.007Z,7.30
2022-08-17T02:45:11.119Z,8.55
2022-08-17T02:50:15.768Z,7.32
2022-08-17T03:01:21.620Z,7.78
2022-08-17T03:06:25.811Z,9.88
2022-08-17T03:11:27.376Z,9.10
2022-08-17T03:16:28.925Z,14.02
2022-08-17T03:21:30.507Z,14.88
2022-08-17T03:26:32.313Z,11.15
2022-08-17T03:31:33.918Z,10.50
2022-08-17T03:36:38.771Z,12.70
2022-08-17T03:41:40.326Z,15.85
2022-08-17T03:47:00.230Z,12.35
2022-08-17T03:52:21.770Z,12.75
2022-08-17T04:03:32.096Z,13.82
2022-08-17T04:14:53.445Z,10.18
2022-08-17T04:19:56.650Z,10.23
2022-08-17T04:24:58.785Z,10.25
2022-08-17T04:30:01.520Z,10.02
2022-08-17T04:35:03.242Z,12.02
2022-08-17T04:40:27.187Z,8.77
2022-08-17T04:45:31.976Z,8.75
2022-08-17T04:50:35.754Z,8.95
2022-08-17T04:55:37.570Z,7.93
2022-08-17T05:00:40.895Z,10.48
2022-08-17T05:05:49.545Z,7.50
2022-08-17T05:10:52.034Z,9.02
2022-08-17T05:15:56.946Z,10.00
2022-08-17T05:20:58.602Z,9.65
2022-08-17T05:26:00.224Z,14.15
2022-08-17T05:31:03.934Z,9.77
2022-08-17T05:36:10.699Z,8.75
2022-08-17T05:41:32.331Z,8.73
2022-08-17T05:46:40.198Z,7.75
2022-08-17T05:52:06.348Z,7.50
2022-08-17T05:57:32.408Z,8.27
2022-08-17T06:03:04.291Z,10.98
2022-08-17T06:08:23.494Z,8.52
2022-08-17T06:13:27.894Z,10.82
2022-08-17T06:18:57.021Z,9.60
2022-08-17T06:24:25.058Z,10.02
2022-08-17T06:29:39.546Z,10.75
2022-08-17T06:34:43.615Z,10.70
2022-08-17T06:39:52.304Z,13.00
2022-08-17T06:45:05.973Z,9.50
2022-08-17T06:50:27.356Z,11.00
2022-08-17T06:55:38.280Z,10.80
2022-08-17T07:00:44.255Z,9.13
2022-08-17T07:05:51.712Z,10.05
2022-08-17T07:10:57.770Z,12.35
2022-08-17T07:16:17.015Z,11.80
2022-08-17T07:21:41.254Z,10.43
2022-08-17T07:26:42.800Z,14.98
2022-08-17T07:31:46.109Z,8.65
2022-08-17T07:36:48.313Z,10.80
2022-08-17T07:41:57.167Z,10.40
2022-08-17T07:47:19.018Z,10.35
2022-08-17T07:52:50.524Z,15.30
2022-08-17T07:57:57.715Z,10.32
2022-08-17T08:03:25.967Z,8.23
2022-08-17T08:08:50.405Z,13.13
2022-08-17T08:13:52.127Z,14.60
2022-08-17T08:18:57.960Z,9.13
2022-08-17T08:24:17.788Z,9.25
2022-08-17T08:29:19.306Z,8.57
2022-08-17T08:35:01.470Z,10.20
2022-08-17T08:40:31.981Z,6.00
2022-08-17T08:45:33.472Z,4.63
2022-08-17T08:50:48.168Z,7.55
2022-08-17T08:55:58.963Z,4.70
2022-08-17T09:01:20.829Z,6.72
2022-08-17T09:06:47.047Z,5.65
2022-08-17T09:12:02.282Z,5.25
2022-08-17T09:17:46.870Z,4.60
2022-08-17T09:22:53.517Z,7.15
2022-08-17T09:27:55.006Z,5.93
2022-08-17T09:33:00.196Z,9.15
2022-08-17T09:38:11.631Z,11.75
2022-08-17T09:48:42.704Z,11.25
2022-08-17T09:53:44.852Z,10.85
2022-08-17T09:59:05.175Z,10.88
2022-08-17T10:04:32.167Z,11.63
2022-08-17T10:09:45.797Z,9.77
2022-08-17T10:15:08.047Z,9.73
2022-08-17T10:20:20.479Z,7.97
2022-08-17T10:25:54.785Z,8.55
2022-08-17T10:31:32.986Z,11.80
2022-08-17T10:36:41.368Z,8.48
2022-08-17T10:41:49.402Z,7.30
2022-08-17T10:47:05.507Z,5.90
2022-08-17T10:52:42.394Z,6.40
2022-08-17T10:57:50.206Z,6.07
2022-08-17T11:02:55.011Z,5.38
2022-08-17T11:07:58.485Z,8.63
2022-08-17T11:13:26.769Z,6.93
2022-08-17T11:18:40.169Z,6.20
2022-08-17T11:24:12.627Z,5.47
2022-08-17T11:29:50.676Z,6.40
2022-08-17T11:35:21.079Z,6.00
2022-08-17T11:40:47.482Z,6.70
2022-08-17T11:45:51.744Z,6.38
2022-08-17T11:51:19.063Z,6.25
2022-08-17T11:56:41.250Z,4.60
2022-08-17T12:01:57.061Z,5.30
2022-08-17T12:07:19.030Z,5.68
2022-08-17T12:12:29.803Z,5.13
2022-08-17T12:17:39.732Z,5.10
2022-08-17T12:22:54.747Z,7.00
2022-08-17T12:28:06.523Z,5.70
2022-08-17T12:33:13.692Z,7.18
2022-08-17T12:38:34.778Z,5.63
2022-08-17T12:43:36.487Z,8.38
2022-08-17T12:48:38.060Z,6.07
2022-08-17T12:53:42.429Z,5.38
2022-08-17T12:58:55.585Z,5.00
2022-08-17T13:04:00.162Z,4.78
2022-08-17T13:09:20.424Z,6.05
2022-08-17T13:14:22.517Z,5.53
2022-08-17T13:19:29.877Z,5.47
2022-08-17T13:24:53.287Z,5.73
2022-08-17T13:30:02.239Z,4.75
2022-08-17T13:35:40.955Z,6.05
2022-08-17T13:40:49.928Z,4.80
2022-08-17T13:45:52.353Z,7.80
2022-08-17T13:50:56.961Z,5.13
2022-08-17T13:56:07.395Z,4.95
2022-08-17T14:01:32.769Z,5.25
2022-08-17T14:06:53.218Z,6.43
2022-08-17T14:11:57.760Z,5.50
2022-08-17T14:16:59.353Z,6.78
2022-08-17T14:22:01.133Z,6.78
2022-08-17T14:27:05.328Z,6.25
2022-08-17T14:32:17.093Z,5.72
2022-08-17T14:37:20.408Z,6.15
2022-08-17T14:42:27.146Z,7.38
2022-08-17T14:47:28.694Z,6.75
2022-08-17T14:52:30.549Z,6.38
2022-08-17T14:57:34.621Z,6.30
2022-08-17T15:02:54.650Z,6.18
2022-08-17T15:07:56.220Z,7.32
2022-08-17T15:12:58.293Z,8.55
2022-08-17T15:18:00.383Z,5.50
2022-08-17T15:23:02.216Z,4.97
2022-08-17T15:28:04.166Z,6.00
2022-08-17T15:33:05.770Z,6.28
2022-08-17T15:38:11.965Z,7.43
2022-08-17T15:43:27.331Z,6.07
2022-08-17T15:48:41.718Z,5.43
2022-08-17T15:53:46.888Z,5.15
2022-08-17T15:58:49.420Z,6.13
2022-08-17T16:04:05.247Z,4.85
2022-08-17T16:09:08.905Z,6.30
2022-08-17T16:14:10.439Z,6.55
2022-08-17T16:19:15.320Z,6.05
2022-08-17T16:24:16.900Z,5.05
2022-08-17T16:29:18.509Z,6.60
2022-08-17T16:34:21.029Z,6.18
2022-08-17T16:39:24.571Z,5.38
2022-08-17T16:44:27.444Z,5.50
2022-08-17T16:49:36.974Z,6.25
2022-08-17T16:54:43.461Z,4.68
2022-08-17T16:59:50.154Z,7.43
2022-08-17T17:05:03.069Z,5.32
2022-08-17T17:10:16.987Z,6.25
2022-08-17T17:15:22.136Z,4.97
2022-08-17T17:20:28.914Z,5.85
2022-08-17T17:25:40.672Z,6.00
2022-08-17T17:30:47.098Z,5.32
2022-08-17T17:35:59.138Z,4.53
2022-08-17T17:41:05.487Z,6.25
2022-08-17T17:46:31.338Z,5.47
2022-08-17T17:52:07.690Z,6.07
2022-08-17T17:57:33.830Z,4.72
2022-08-17T18:02:52.018Z,5.93
2022-08-17T18:08:21.837Z,5.63
2022-08-17T18:13:54.127Z,7.38
2022-08-17T18:18:57.888Z,5.82
2022-08-17T18:24:05.392Z,6.90
2022-08-17T18:29:28.177Z,6.20
2022-08-17T18:34:46.712Z,7.53
2022-08-17T18:45:54.187Z,6.63
2022-08-17T18:51:00.269Z,8.98
2022-08-17T18:56:27.088Z,8.50
2022-08-17T19:01:53.655Z,8.68
2022-08-17T19:07:23.699Z,9.45
2022-08-17T19:12:48.344Z,7.97
2022-08-17T19:17:57.043Z,5.93
2022-08-17T19:23:12.971Z,7.30
2022-08-17T19:28:23.048Z,6.07
2022-08-17T19:33:25.757Z,6.75
2022-08-17T19:38:46.022Z,6.82
2022-08-17T19:44:15.280Z,6.18
2022-08-17T19:49:40.807Z,6.63
2022-08-17T19:55:02.240Z,6.45
2022-08-17T20:00:15.041Z,6.72
2022-08-17T20:05:22.261Z,7.97
2022-08-17T20:10:38.705Z,9.35
2022-08-17T20:15:43.018Z,7.35
2022-08-17T20:20:56.966Z,8.07
2022-08-17T20:26:10.755Z,5.93
2022-08-17T20:31:50.611Z,6.50
2022-08-17T20:42:31.458Z,6.40
2022-08-17T20:48:07.280Z,6.10
2022-08-17T20:53:13.420Z,6.80
2022-08-17T20:58:17.055Z,6.57
2022-08-17T21:03:25.283Z,6.70
2022-08-17T21:08:30.577Z,6.43
2022-08-17T21:14:10.757Z,8.18
2022-08-17T21:20:07.628Z,5.68
2022-08-17T21:25:25.632Z,7.63
2022-08-17T21:30:27.867Z,6.47
2022-08-17T21:35:48.018Z,6.82
2022-08-17T21:40:53.188Z,6.50
2022-08-17T21:45:59.564Z,8.00
2022-08-17T21:51:19.008Z,7.68
2022-08-17T21:56:30.434Z,8.05
2022-08-17T22:01:35.597Z,7.68
2022-08-17T22:06:56.922Z,10.75
2022-08-17T22:12:11.278Z,5.95
2022-08-17T22:17:19.051Z,7.57
2022-08-17T22:22:34.355Z,8.60
2022-08-17T22:27:57.322Z,6.78
2022-08-17T22:33:00.926Z,7.40
2022-08-17T22:38:20.632Z,8.30
2022-08-17T22:43:28.556Z,7.10
2022-08-17T22:48:31.249Z,5.63
2022-08-17T22:53:53.791Z,6.50
2022-08-17T22:59:16.361Z,11.40
2022-08-17T23:04:35.365Z,7.93
2022-08-17T23:09:37.051Z,5.70
2022-08-17T23:14:41.214Z,8.90
2022-08-17T23:19:42.945Z,7.43
2022-08-17T23:24:48.971Z,6.57
2022-08-17T23:29:50.593Z,8.98
2022-08-17T23:34:52.135Z,8.85
2022-08-17T23:39:53.718Z,9.30
2022-08-17T23:44:55.827Z,8.85
2022-08-17T23:49:57.444Z,7.82
2022-08-17T23:55:05.344Z,6.70
